Time,TemperatureF,DewpointF,PressureIn,WindDirection,WindDirectionDegrees,WindSpeedMPH,WindSpeedGustMPH,Humidity,HourlyPrecipIn,Conditions,Clouds,dailyrainin,SoftwareType,DateUTC
2013-05-28 00:01:00,51.7,47.3,30.15,NNE,18,0.0,0.0,85,0.00,CLR,,0.00,WeatherDisplay:10.37,2013-05-28 04:01:00,
2013-05-28 00:06:00,51.2,46.8,30.15,NNE,18,0.0,0.0,85,0.00,CLR,,0.00,WeatherDisplay:10.37,2013-05-28 04:06:00,
2013-05-28 00:11:00,50.9,46.9,30.15,NNE,18,0.0,0.0,86,0.00,CLR,,0.00,WeatherDisplay:10.37,2013-05-28 04:11:00,
2013-05-28 00:16:00,50.6,46.6,30.15,NNE,18,0.0,0.0,86,0.00,CLR,,0.00,WeatherDisplay:10.37,2013-05-28 04:16:00,
2013-05-28 00:21:00,50.4,46.7,30.15,NNE,18,0.0,0.0,87,0.00,CLR,,0.00,WeatherDisplay:10.37,2013-05-28 04:21:00,
2013-05-28 00:26:00,49.9,46.2,30.15,NNE,18,2.0,2.0,87,0.00,CLR,,0.00,WeatherDisplay:10.37,2013-05-28 04:26:00,
2013-05-28 00:31:00,49.6,46.2,30.16,NNE,18,0.0,0.0,88,0.00,CLR,,0.00,WeatherDisplay:10.37,2013-05-28 04:31:00,
2013-05-28 00:36:00,49.5,46.1,30.16,NNE,18,0.0,0.0,88,0.00,CLR,,0.00,WeatherDisplay:10.37,2013-05-28 04:36:00,
2013-05-28 00:41:00,49.2,46.1,30.16,NNE,18,0.0,0.0,89,0.00,CLR,,0.00,WeatherDisplay:10.37,2013-05-28 04:41:00,
2013-05-28 00:46:00,49.2,46.4,30.16,NNE,18,0.0,0.0,90,0.00,CLR,,0.00,WeatherDisplay:10.37,2013-05-28 04:46:00,
2013-05-28 00:51:00,49.3,46.5,30.16,NNE,18,3.0,3.0,90,0.00,CLR,,0.00,WeatherDisplay:10.37,2013-05-28 04:51:00,
2013-05-28 00:56:00,49.3,46.5,30.16,NNE,18,3.5,3.5,90,0.00,CLR,,0.00,WeatherDisplay:10.37,2013-05-28 04:56:00,
2013-05-28 01:01:00,49.2,46.4,30.16,NNE,18,3.5,3.5,90,0.00,CLR,,0.00,WeatherDisplay:10.37,2013-05-28 05:01:00,
2013-05-28 01:06:00,49.1,46.3,30.16,NNE,18,0.0,0.0,90,0.00,CLR,,0.00,WeatherDisplay:10.37,2013-05-28 05:06:00,
2013-05-28 01:11:00,49.0,46.5,30.16,NNE,18,0.0,0.0,91,0.00,CLR,,0.00,WeatherDisplay:10.37,2013-05-28 05:11:00,
2013-05-28 01:16:00,48.8,46.3,30.16,NNE,18,3.5,3.5,91,0.00,CLR,,0.00,WeatherDisplay:10.37,2013-05-28 05:16:00,
2013-05-28 01:21:00,48.7,46.2,30.16,NNE,18,0.0,0.0,91,0.00,CLR,,0.00,WeatherDisplay:10.37,2013-05-28 05:21:00,
2013-05-28 01:26:00,48.5,46.0,30.16,NNE,17,0.0,0.0,91,0.00,CLR,,0.00,WeatherDisplay:10.37,2013-05-28 05:26:00,
2013-05-28 01:31:00,48.3,45.8,30.16,NNE,18,0.0,0.0,91,0.00,CLR,,0.00,WeatherDisplay:10.37,2013-05-28 05:31:00,
2013-05-28 01:36:00,48.2,46.0,30.16,NNE,18,0.0,0.0,92,0.00,CLR,,0.00,WeatherDisplay:10.37,2013-05-28 05:36:00,
2013-05-28 01:41:00,48.2,47.1,30.16,NNE,18,0.0,0.0,96,0.00,CLR,,0.00,WeatherDisplay:10.37,2013-05-28 05:41:00,
2013-05-28 01:46:00,48.1,45.9,30.16,NNE,18,0.0,0.0,92,0.00,CLR,,0.00,WeatherDisplay:10.37,2013-05-28 05:46:00,
2013-05-28 01:51:00,48.1,45.9,30.16,NNE,15,3.5,3.5,92,0.00,CLR,,0.00,WeatherDisplay:10.37,2013-05-28 05:51:00,
2013-05-28 01:56:00,48.1,45.9,30.16,NNE,15,0.0,0.0,92,0.00,CLR,,0.00,WeatherDisplay:10.37,2013-05-28 05:56:00,
2013-05-28 02:01:00,48.0,45.8,30.16,NNE,15,0.0,0.0,92,0.00,CLR,,0.00,WeatherDisplay:10.37,2013-05-28 06:01:00,
2013-05-28 02:06:00,47.8,45.6,30.16,NNE,15,0.0,0.0,92,0.00,CLR,,0.00,WeatherDisplay:10.37,2013-05-28 06:06:00,
2013-05-28 02:11:00,47.7,45.5,30.16,NNE,15,0.0,0.0,92,0.00,CLR,,0.00,WeatherDisplay:10.37,2013-05-28 06:11:00,
2013-05-28 02:16:00,47.7,45.5,30.16,NNE,15,0.0,0.0,92,0.00,CLR,,0.00,WeatherDisplay:10.37,2013-05-28 06:16:00,
2013-05-28 02:21:00,47.8,45.9,30.16,NNE,15,0.0,0.0,93,0.00,CLR,,0.00,WeatherDisplay:10.37,2013-05-28 06:21:00,
2013-05-28 02:26:00,47.9,46.0,30.16,NNE,15,3.5,3.5,93,0.00,CLR,,0.00,WeatherDisplay:10.37,2013-05-28 06:26:00,
2013-05-28 02:31:00,47.8,45.9,30.16,NNE,15,0.0,0.0,93,0.00,CLR,,0.00,WeatherDisplay:10.37,2013-05-28 06:31:00,
2013-05-28 02:36:00,47.5,45.6,30.16,NNE,15,0.0,0.0,93,0.00,CLR,,0.00,WeatherDisplay:10.37,2013-05-28 06:36:00,
2013-05-28 02:41:00,47.6,45.7,30.16,NNE,15,0.0,0.0,93,0.00,CLR,,0.00,WeatherDisplay:10.37,2013-05-28 06:41:00,
2013-05-28 02:46:00,47.5,45.6,30.16,NNE,15,0.0,0.0,93,0.00,CLR,,0.00,WeatherDisplay:10.37,2013-05-28 06:46:00,
2013-05-28 02:51:00,47.4,45.5,30.16,NNE,14,4.0,4.0,93,0.00,CLR,,0.00,WeatherDisplay:10.37,2013-05-28 06:51:00,
2013-05-28 02:56:00,47.3,45.4,30.16,NNE,13,2.3,0.0,93,0.00,CLR,,0.00,WeatherDisplay:10.37,2013-05-28 06:56:00,
2013-05-28 03:01:00,47.4,45.5,30.16,NNE,13,0.0,0.0,93,0.00,CLR,,0.00,WeatherDisplay:10.37,2013-05-28 07:01:00,
2013-05-28 03:06:00,47.2,45.3,30.16,NNE,13,3.0,3.0,93,0.00,CLR,,0.00,WeatherDisplay:10.37,2013-05-28 07:06:00,
2013-05-28 03:11:00,47.1,45.2,30.16,NNE,12,3.5,3.5,93,0.00,CLR,,0.00,WeatherDisplay:10.37,2013-05-28 07:11:00,
2013-05-28 03:16:00,47.0,45.1,30.16,NNE,12,0.0,0.0,93,0.00,CLR,,0.00,WeatherDisplay:10.37,2013-05-28 07:16:00,
2013-05-28 03:21:00,46.8,44.9,30.16,North,11,0.0,0.0,93,0.00,CLR,,0.00,WeatherDisplay:10.37,2013-05-28 07:21:00,
2013-05-28 03:26:00,46.8,45.2,30.16,North,11,0.0,0.0,94,0.00,CLR,,0.00,WeatherDisplay:10.37,2013-05-28 07:26:00,
2013-05-28 03:31:00,46.8,44.9,30.15,North,11,0.0,0.0,93,0.00,CLR,,0.00,WeatherDisplay:10.37,2013-05-28 07:31:00,
2013-05-28 03:36:00,46.8,45.2,30.15,North,11,0.0,0.0,94,0.00,CLR,,0.00,WeatherDisplay:10.37,2013-05-28 07:36:00,
2013-05-28 03:41:00,46.8,45.2,30.15,North,11,2.0,2.0,94,0.00,CLR,,0.00,WeatherDisplay:10.37,2013-05-28 07:41:00,
2013-05-28 03:46:00,46.7,45.1,30.15,NNE,12,4.6,4.6,94,0.00,CLR,,0.00,WeatherDisplay:10.37,2013-05-28 07:46:00,
2013-05-28 03:51:00,46.6,45.0,30.15,NNE,12,0.0,0.0,94,0.00,CLR,,0.00,WeatherDisplay:10.37,2013-05-28 07:51:00,
2013-05-28 03:56:00,46.6,45.0,30.15,NNE,12,0.0,0.0,94,0.00,CLR,,0.00,WeatherDisplay:10.37,2013-05-28 07:56:00,
2013-05-28 04:01:00,46.4,44.8,30.15,NNE,12,0.0,0.0,94,0.00,CLR,,0.00,WeatherDisplay:10.37,2013-05-28 08:01:00,
2013-05-28 04:06:00,46.4,44.8,30.15,NNE,12,0.0,0.0,94,0.00,CLR,,0.00,WeatherDisplay:10.37,2013-05-28 08:06:00,
2013-05-28 04:11:00,46.6,45.0,30.15,NNE,12,0.0,0.0,94,0.00,CLR,,0.00,WeatherDisplay:10.37,2013-05-28 08:11:00,
2013-05-28 04:16:00,46.6,45.0,30.15,NNE,13,4.6,4.6,94,0.00,CLR,,0.00,WeatherDisplay:10.37,2013-05-28 08:16:00,
2013-05-28 04:21:00,46.4,44.8,30.15,NNE,13,0.0,0.0,94,0.00,CLR,,0.00,WeatherDisplay:10.37,2013-05-28 08:21:00,
2013-05-28 04:26:00,46.0,44.4,30.16,North,10,0.0,0.0,94,0.00,CLR,,0.00,WeatherDisplay:10.37,2013-05-28 08:26:00,
2013-05-28 04:31:00,45.9,44.3,30.16,North,9,3.0,3.0,94,0.00,CLR,,0.00,WeatherDisplay:10.37,2013-05-28 08:31:00,
2013-05-28 04:36:00,45.8,44.2,30.16,North,10,2.3,0.0,94,0.00,CLR,,0.00,WeatherDisplay:10.37,2013-05-28 08:36:00,
2013-05-28 04:41:00,45.9,44.3,30.16,North,10,0.0,0.0,94,0.00,CLR,,0.00,WeatherDisplay:10.37,2013-05-28 08:41:00,
2013-05-28 04:46:00,45.9,44.3,30.16,North,9,0.0,0.0,94,0.00,CLR,,0.00,WeatherDisplay:10.37,2013-05-28 08:46:00,
2013-05-28 04:51:00,46.0,44.4,30.16,North,10,0.0,0.0,94,0.00,CLR,,0.00,WeatherDisplay:10.37,2013-05-28 08:51:00,
2013-05-28 04:56:00,46.0,44.4,30.16,North,10,0.0,0.0,94,0.00,CLR,,0.00,WeatherDisplay:10.37,2013-05-28 08:56:00,
2013-05-28 05:01:00,46.0,44.4,30.16,North,9,0.0,0.0,94,0.00,CLR,,0.00,WeatherDisplay:10.37,2013-05-28 09:01:00,
2013-05-28 05:06:00,45.8,44.2,30.16,North,10,0.0,0.0,94,0.00,CLR,,0.00,WeatherDisplay:10.37,2013-05-28 09:06:00,
2013-05-28 05:11:00,45.6,44.3,30.16,North,10,0.0,0.0,95,0.00,CLR,,0.00,WeatherDisplay:10.37,2013-05-28 09:11:00,
2013-05-28 05:16:00,45.9,44.5,30.16,North,9,0.0,0.0,95,0.00,CLR,,0.00,WeatherDisplay:10.37,2013-05-28 09:16:00,
2013-05-28 05:21:00,46.1,44.7,30.16,North,10,0.0,0.0,95,0.00,CLR,,0.00,WeatherDisplay:10.37,2013-05-28 09:21:00,
2013-05-28 05:26:00,46.1,44.7,30.16,NNE,17,0.0,0.0,95,0.00,CLR,,0.00,WeatherDisplay:10.37,2013-05-28 09:26:00,
2013-05-28 05:31:00,45.9,44.3,30.16,NNE,17,3.5,3.5,94,0.00,CLR,,0.00,WeatherDisplay:10.37,2013-05-28 09:31:00,
2013-05-28 05:36:00,46.0,44.6,30.16,North,9,4.6,4.6,95,0.00,CLR,,0.00,WeatherDisplay:10.37,2013-05-28 09:36:00,
2013-05-28 05:41:00,46.0,44.6,30.16,North,9,3.5,3.5,95,0.00,CLR,,0.00,WeatherDisplay:10.37,2013-05-28 09:41:00,
2013-05-28 05:46:00,46.0,44.6,30.17,North,9,0.0,0.0,95,0.00,CLR,,0.00,WeatherDisplay:10.37,2013-05-28 09:46:00,
2013-05-28 05:51:00,46.2,44.8,30.16,North,9,3.5,3.5,95,0.00,CLR,,0.00,WeatherDisplay:10.37,2013-05-28 09:51:00,
2013-05-28 05:56:00,46.4,45.0,30.17,NNE,17,3.0,3.0,95,0.00,CLR,,0.00,WeatherDisplay:10.37,2013-05-28 09:56:00,
2013-05-28 06:01:00,46.6,45.2,30.17,NNE,22,3.5,3.5,95,0.00,CLR,,0.00,WeatherDisplay:10.37,2013-05-28 10:01:00,
2013-05-28 06:06:00,46.9,45.5,30.16,NNE,22,3.5,3.5,95,0.00,CLR,,0.00,WeatherDisplay:10.37,2013-05-28 10:06:00,
2013-05-28 06:11:00,47.2,45.8,30.17,NNE,22,3.5,3.5,95,0.00,CLR,,0.00,WeatherDisplay:10.37,2013-05-28 10:11:00,
2013-05-28 06:16:00,47.4,46.0,30.17,NNE,22,4.0,4.0,95,0.00,CLR,,0.00,WeatherDisplay:10.37,2013-05-28 10:16:00,
2013-05-28 06:21:00,47.8,46.4,30.17,NNE,22,3.5,3.5,95,0.00,CLR,,0.00,WeatherDisplay:10.37,2013-05-28 10:21:00,
2013-05-28 06:26:00,48.2,46.6,30.18,NW,317,2.3,2.3,94,0.00,CLR,,0.00,WeatherDisplay:10.37,2013-05-28 10:26:00,
2013-05-28 06:31:00,48.6,47.0,30.18,NW,321,0.0,0.0,94,0.00,CLR,,0.00,WeatherDisplay:10.37,2013-05-28 10:31:00,
2013-05-28 06:36:00,49.0,47.1,30.18,NNW,338,0.0,0.0,93,0.00,CLR,,0.00,WeatherDisplay:10.37,2013-05-28 10:36:00,
2013-05-28 06:41:00,49.6,47.4,30.18,NNW,338,0.0,0.0,92,0.00,CLR,,0.00,WeatherDisplay:10.37,2013-05-28 10:41:00,
2013-05-28 06:46:00,49.7,47.2,30.18,North,5,0.0,0.0,91,0.00,CLR,,0.00,WeatherDisplay:10.37,2013-05-28 10:46:00,
2013-05-28 06:51:00,49.5,46.7,30.18,North,9,0.0,0.0,90,0.00,CLR,,0.00,WeatherDisplay:10.37,2013-05-28 10:51:00,
2013-05-28 06:56:00,49.4,46.6,30.18,ENE,65,0.0,0.0,90,0.00,CLR,,0.00,WeatherDisplay:10.37,2013-05-28 10:56:00,
2013-05-28 07:01:00,49.3,46.5,30.18,ENE,65,0.0,0.0,90,0.00,CLR,,0.00,WeatherDisplay:10.37,2013-05-28 11:01:00,
2013-05-28 07:06:00,49.3,46.5,30.18,ENE,66,0.0,0.0,90,0.00,CLR,,0.00,WeatherDisplay:10.37,2013-05-28 11:06:00,
2013-05-28 07:11:00,49.5,46.7,30.19,ENE,66,0.0,0.0,90,0.00,CLR,,0.00,WeatherDisplay:10.37,2013-05-28 11:11:00,
2013-05-28 07:16:00,49.5,46.4,30.18,ENE,66,0.0,0.0,89,0.00,CLR,,0.00,WeatherDisplay:10.37,2013-05-28 11:16:00,
2013-05-28 07:21:00,49.8,46.7,30.19,ENE,66,0.0,0.0,89,0.00,CLR,,0.00,WeatherDisplay:10.37,2013-05-28 11:21:00,
2013-05-28 07:26:00,50.2,47.1,30.19,ENE,65,0.0,0.0,89,0.00,CLR,,0.00,WeatherDisplay:10.37,2013-05-28 11:26:00,
2013-05-28 07:31:00,50.6,47.5,30.19,ENE,65,0.0,0.0,89,0.00,CLR,,0.00,WeatherDisplay:10.37,2013-05-28 11:31:00,
2013-05-28 07:36:00,51.1,48.0,30.19,ENE,65,0.0,0.0,89,0.00,CLR,,0.00,WeatherDisplay:10.37,2013-05-28 11:36:00,
2013-05-28 07:41:00,51.5,48.1,30.19,ENE,58,3.5,3.5,88,0.00,CLR,,0.00,WeatherDisplay:10.37,2013-05-28 11:41:00,
2013-05-28 07:46:00,52.0,48.3,30.19,ENE,57,0.0,0.0,87,0.00,CLR,,0.00,WeatherDisplay:10.37,2013-05-28 11:46:00,
2013-05-28 07:51:00,52.5,48.7,30.19,ENE,57,0.0,0.0,87,0.00,CLR,,0.00,WeatherDisplay:10.37,2013-05-28 11:51:00,
2013-05-28 07:56:00,52.9,48.8,30.19,ENE,69,3.5,3.5,86,0.00,CLR,,0.00,WeatherDisplay:10.37,2013-05-28 11:56:00,
2013-05-28 08:01:00,53.4,48.7,30.19,ENE,69,0.0,0.0,84,0.00,CLR,,0.00,WeatherDisplay:10.37,2013-05-28 12:01:00,
2013-05-28 08:06:00,54.3,48.9,30.19,East,88,3.0,3.0,82,0.00,CLR,,0.00,WeatherDisplay:10.37,2013-05-28 12:06:00,
2013-05-28 08:11:00,55.0,48.9,30.19,East,88,0.0,0.0,80,0.00,CLR,,0.00,WeatherDisplay:10.37,2013-05-28 12:11:00,
2013-05-28 08:16:00,55.5,48.8,30.18,NE,47,4.6,4.6,78,0.00,CLR,,0.00,WeatherDisplay:10.37,2013-05-28 12:16:00,
2013-05-28 08:21:00,55.6,48.5,30.18,NE,46,4.6,4.6,77,0.00,CLR,,0.00,WeatherDisplay:10.37,2013-05-28 12:21:00,
2013-05-28 08:26:00,56.4,48.9,30.19,NE,55,3.5,0.0,76,0.00,CLR,,0.00,WeatherDisplay:10.37,2013-05-28 12:26:00,
2013-05-28 08:31:00,57.4,49.5,30.19,East,86,0.0,0.0,75,0.00,CLR,,0.00,WeatherDisplay:10.37,2013-05-28 12:31:00,
2013-05-28 08:36:00,58.3,49.3,30.19,East,91,0.0,0.0,72,0.00,CLR,,0.00,WeatherDisplay:10.37,2013-05-28 12:36:00,
2013-05-28 08:41:00,58.5,49.1,30.19,East,92,3.5,3.5,71,0.00,CLR,,0.00,WeatherDisplay:10.37,2013-05-28 12:41:00,
2013-05-28 08:46:00,58.4,49.0,30.19,ESE,122,0.0,0.0,71,0.00,CLR,,0.00,WeatherDisplay:10.37,2013-05-28 12:46:00,
2013-05-28 08:51:00,58.5,49.9,30.19,ESE,122,0.0,0.0,73,0.00,CLR,,0.00,WeatherDisplay:10.37,2013-05-28 12:51:00,
2013-05-28 08:56:00,60.5,50.7,30.19,ESE,122,0.0,0.0,70,0.00,CLR,,0.00,WeatherDisplay:10.37,2013-05-28 12:56:00,
2013-05-28 09:01:00,60.0,49.4,30.19,ESE,122,0.0,0.0,68,0.00,CLR,,0.00,WeatherDisplay:10.37,2013-05-28 13:01:00,
2013-05-28 09:06:00,59.6,49.4,30.19,SSE,161,0.0,0.0,69,0.00,CLR,,0.00,WeatherDisplay:10.37,2013-05-28 13:06:00,
2013-05-28 09:11:00,59.3,49.5,30.19,SE,143,0.0,0.0,70,0.00,CLR,,0.00,WeatherDisplay:10.37,2013-05-28 13:11:00,
2013-05-28 09:16:00,59.9,49.7,30.19,SE,143,0.0,0.0,69,0.00,CLR,,0.00,WeatherDisplay:10.37,2013-05-28 13:16:00,
2013-05-28 09:21:00,59.6,49.8,30.20,South,182,6.0,6.0,70,0.00,CLR,,0.00,WeatherDisplay:10.37,2013-05-28 13:21:00,
2013-05-28 09:26:00,59.6,50.2,30.19,SSW,209,2.3,0.0,71,0.00,CLR,,0.00,WeatherDisplay:10.37,2013-05-28 13:26:00,
2013-05-28 09:31:00,59.3,49.5,30.19,South,181,3.5,3.5,70,0.00,CLR,,0.00,WeatherDisplay:10.37,2013-05-28 13:31:00,
2013-05-28 09:36:00,59.5,50.5,30.19,South,185,5.8,5.8,72,0.00,CLR,,0.00,WeatherDisplay:10.37,2013-05-28 13:36:00,
2013-05-28 09:41:00,59.2,49.8,30.19,WSW,249,5.8,5.8,71,0.00,CLR,,0.00,WeatherDisplay:10.37,2013-05-28 13:41:00,
2013-05-28 09:46:00,59.0,50.7,30.19,South,172,5.8,5.8,74,0.00,CLR,,0.00,WeatherDisplay:10.37,2013-05-28 13:46:00,
2013-05-28 09:51:00,59.1,50.8,30.20,SSE,167,5.8,5.8,74,0.00,CLR,,0.00,WeatherDisplay:10.37,2013-05-28 13:51:00,
2013-05-28 09:56:00,58.5,50.2,30.20,South,181,10.4,10.4,74,0.00,CLR,,0.00,WeatherDisplay:10.37,2013-05-28 13:56:00,
2013-05-28 10:01:00,59.0,50.7,30.19,South,187,4.6,4.6,74,0.00,CLR,,0.00,WeatherDisplay:10.37,2013-05-28 14:01:00,
2013-05-28 10:06:00,58.9,51.3,30.20,South,173,5.0,5.0,76,0.00,CLR,,0.00,WeatherDisplay:10.37,2013-05-28 14:06:00,
2013-05-28 10:11:00,59.0,51.1,30.19,SSE,161,5.0,5.0,75,0.00,CLR,,0.00,WeatherDisplay:10.37,2013-05-28 14:11:00,
2013-05-28 10:16:00,58.8,51.6,30.20,SSE,161,3.5,3.5,77,0.00,CLR,,0.00,WeatherDisplay:10.37,2013-05-28 14:16:00,
2013-05-28 10:21:00,59.1,52.2,30.20,SSE,154,3.5,3.5,78,0.00,CLR,,0.00,WeatherDisplay:10.37,2013-05-28 14:21:00,
2013-05-28 10:26:00,58.9,51.3,30.20,SSE,147,5.8,5.8,76,0.00,CLR,,0.00,WeatherDisplay:10.37,2013-05-28 14:26:00,
2013-05-28 10:31:00,59.2,51.3,30.20,SSE,154,4.6,4.6,75,0.00,CLR,,0.00,WeatherDisplay:10.37,2013-05-28 14:31:00,
2013-05-28 10:36:00,59.2,51.3,30.20,SSE,155,4.6,4.6,75,0.00,CLR,,0.00,WeatherDisplay:10.37,2013-05-28 14:36:00,
2013-05-28 10:41:00,60.0,52.1,30.20,South,189,3.5,3.5,75,0.00,CLR,,0.00,WeatherDisplay:10.37,2013-05-28 14:41:00,
2013-05-28 10:46:00,61.1,51.6,30.20,SSE,154,5.0,5.0,71,0.00,CLR,,0.00,WeatherDisplay:10.37,2013-05-28 14:46:00,
2013-05-28 10:51:00,61.1,50.8,30.20,South,178,6.0,6.0,69,0.00,CLR,,0.00,WeatherDisplay:10.37,2013-05-28 14:51:00,
2013-05-28 10:56:00,60.8,50.2,30.21,SSE,160,8.1,8.1,68,0.00,CLR,,0.00,WeatherDisplay:10.37,2013-05-28 14:56:00,
2013-05-28 11:01:00,60.5,50.3,30.20,SSE,155,5.8,5.8,69,0.00,CLR,,0.00,WeatherDisplay:10.37,2013-05-28 15:01:00,
2013-05-28 11:06:00,60.7,49.7,30.20,SE,141,6.9,6.9,67,0.00,CLR,,0.00,WeatherDisplay:10.37,2013-05-28 15:06:00,
2013-05-28 11:11:00,60.1,50.7,30.20,SSE,150,5.8,5.8,71,0.00,CLR,,0.00,WeatherDisplay:10.37,2013-05-28 15:11:00,
2013-05-28 11:16:00,60.0,50.6,30.21,SE,142,5.8,5.8,71,0.00,CLR,,0.00,WeatherDisplay:10.37,2013-05-28 15:16:00,
2013-05-28 11:21:00,60.3,51.2,30.20,SSE,148,4.6,4.6,72,0.00,CLR,,0.00,WeatherDisplay:10.37,2013-05-28 15:21:00,
2013-05-28 11:26:00,60.4,51.3,30.20,SE,136,6.0,6.0,72,0.00,CLR,,0.00,WeatherDisplay:10.37,2013-05-28 15:26:00,
2013-05-28 11:31:00,60.4,51.0,30.20,SE,138,6.0,6.0,71,0.00,CLR,,0.00,WeatherDisplay:10.37,2013-05-28 15:31:00,
2013-05-28 11:36:00,60.0,50.9,30.20,SE,125,5.8,5.8,72,0.00,CLR,,0.00,WeatherDisplay:10.37,2013-05-28 15:36:00,
2013-05-28 11:41:00,59.9,50.8,30.20,SE,135,4.6,4.6,72,0.00,CLR,,0.00,WeatherDisplay:10.37,2013-05-28 15:41:00,
2013-05-28 11:46:00,60.2,51.1,30.20,SE,137,5.8,5.8,72,0.00,CLR,,0.00,WeatherDisplay:10.37,2013-05-28 15:46:00,
2013-05-28 11:51:00,60.5,51.8,30.20,ESE,120,5.0,5.0,73,0.00,CLR,,0.00,WeatherDisplay:10.37,2013-05-28 15:51:00,
2013-05-28 11:56:00,60.3,52.3,30.20,SE,126,5.0,5.0,75,0.00,CLR,,0.00,WeatherDisplay:10.37,2013-05-28 15:56:00,
2013-05-28 12:01:00,60.2,52.6,30.20,ESE,118,6.0,6.0,76,0.00,CLR,,0.00,WeatherDisplay:10.37,2013-05-28 16:01:00,
2013-05-28 12:06:00,59.9,52.7,30.20,SE,138,4.6,4.6,77,0.00,OVC,,0.00,WeatherDisplay:10.37,2013-05-28 16:06:00,
2013-05-28 12:11:00,60.3,52.7,30.20,SE,135,4.6,4.6,76,0.00,OVC,,0.00,WeatherDisplay:10.37,2013-05-28 16:11:00,
2013-05-28 12:16:00,60.1,52.1,30.20,SE,130,6.9,6.9,75,0.00,OVC,,0.00,WeatherDisplay:10.37,2013-05-28 16:16:00,
2013-05-28 12:21:00,60.4,51.3,30.20,SE,138,7.0,7.0,72,0.00,OVC,,0.00,WeatherDisplay:10.37,2013-05-28 16:21:00,
2013-05-28 12:26:00,60.5,50.3,30.20,SE,125,5.8,5.8,69,0.00,OVC,,0.00,WeatherDisplay:10.37,2013-05-28 16:26:00,
2013-05-28 12:31:00,60.8,50.6,30.20,SE,129,5.0,5.0,69,0.00,OVC,,0.00,WeatherDisplay:10.37,2013-05-28 16:31:00,
2013-05-28 12:36:00,61.4,51.1,30.20,SE,134,6.0,6.0,69,0.00,OVC,,0.00,WeatherDisplay:10.37,2013-05-28 16:36:00,
2013-05-28 12:41:00,61.3,51.0,30.19,ESE,112,9.2,9.2,69,0.00,OVC,,0.00,WeatherDisplay:10.37,2013-05-28 16:41:00,
2013-05-28 12:46:00,61.6,50.9,30.19,ESE,113,6.9,6.9,68,0.00,OVC,,0.00,WeatherDisplay:10.37,2013-05-28 16:46:00,
2013-05-28 12:51:00,62.3,50.8,30.19,SSE,158,5.8,5.8,66,0.00,OVC,,0.00,WeatherDisplay:10.37,2013-05-28 16:51:00,
2013-05-28 12:56:00,61.8,51.1,30.19,SE,142,8.1,8.1,68,0.00,OVC,,0.00,WeatherDisplay:10.37,2013-05-28 16:56:00,
2013-05-28 13:02:00,61.4,51.1,30.19,SE,138,9.2,9.2,69,0.00,OVC,,0.00,WeatherDisplay:10.37,2013-05-28 17:02:00,
2013-05-28 13:07:00,61.3,51.0,30.19,SE,130,6.9,6.9,69,0.00,OVC,,0.00,WeatherDisplay:10.37,2013-05-28 17:07:00,
2013-05-28 13:12:00,61.1,51.6,30.19,ESE,122,8.1,8.1,71,0.00,OVC,,0.00,WeatherDisplay:10.37,2013-05-28 17:12:00,
2013-05-28 13:17:00,61.3,52.2,30.19,SE,139,4.6,4.6,72,0.00,OVC,,0.00,WeatherDisplay:10.37,2013-05-28 17:17:00,
2013-05-28 13:22:00,61.5,52.0,30.19,SE,143,5.8,5.8,71,0.00,OVC,,0.00,WeatherDisplay:10.37,2013-05-28 17:22:00,
2013-05-28 13:27:00,61.3,52.2,30.19,SE,128,6.9,6.9,72,0.00,OVC,,0.00,WeatherDisplay:10.37,2013-05-28 17:27:00,
2013-05-28 13:32:00,60.9,52.2,30.18,SE,138,9.2,9.2,73,0.00,OVC,,0.00,WeatherDisplay:10.37,2013-05-28 17:32:00,
2013-05-28 13:37:00,60.7,52.7,30.18,SE,146,6.9,6.9,75,0.00,OVC,,0.00,WeatherDisplay:10.37,2013-05-28 17:37:00,
2013-05-28 13:42:00,61.3,53.3,30.18,SE,130,5.8,5.8,75,0.00,OVC,,0.00,WeatherDisplay:10.37,2013-05-28 17:42:00,
2013-05-28 13:47:00,60.8,52.5,30.18,ESE,121,9.2,9.2,74,0.00,OVC,,0.00,WeatherDisplay:10.37,2013-05-28 17:47:00,
2013-05-28 13:52:00,60.7,52.7,30.18,ESE,119,9.2,9.2,75,0.00,OVC,,0.00,WeatherDisplay:10.37,2013-05-28 17:52:00,
2013-05-28 13:57:00,60.5,52.5,30.18,East,93,9.2,9.2,75,0.00,OVC,,0.00,WeatherDisplay:10.37,2013-05-28 17:57:00,
2013-05-28 14:02:00,61.2,53.2,30.17,ESE,121,6.9,6.9,75,0.00,OVC,,0.00,WeatherDisplay:10.37,2013-05-28 18:02:00,
2013-05-28 14:07:00,62.0,53.2,30.17,ESE,119,9.2,9.2,73,0.00,CLR,,0.00,WeatherDisplay:10.37,2013-05-28 18:07:00,
2013-05-28 14:12:00,60.9,53.3,30.18,SE,136,9.2,9.2,76,0.00,CLR,,0.00,WeatherDisplay:10.37,2013-05-28 18:12:00,
2013-05-28 14:17:00,60.4,53.2,30.18,SE,124,5.8,5.8,77,0.00,CLR,,0.00,WeatherDisplay:10.37,2013-05-28 18:17:00,
2013-05-28 14:22:00,60.2,53.7,30.17,SE,128,8.1,8.1,79,0.00,CLR,,0.00,WeatherDisplay:10.37,2013-05-28 18:22:00,
2013-05-28 14:27:00,60.0,53.5,30.17,SE,129,9.2,9.2,79,0.00,CLR,,0.00,WeatherDisplay:10.37,2013-05-28 18:27:00,
2013-05-28 14:32:00,59.9,53.7,30.18,ESE,120,7.0,7.0,80,0.00,CLR,,0.00,WeatherDisplay:10.37,2013-05-28 18:32:00,
2013-05-28 14:37:00,59.6,53.8,30.18,ESE,117,6.9,6.9,81,0.00,CLR,,0.00,WeatherDisplay:10.37,2013-05-28 18:37:00,
2013-05-28 14:42:00,59.4,53.9,30.18,ESE,120,6.9,6.9,82,0.00,CLR,,0.00,WeatherDisplay:10.37,2013-05-28 18:42:00,
2013-05-28 14:47:00,59.1,53.6,30.18,SE,126,5.8,5.8,82,0.00,CLR,,0.00,WeatherDisplay:10.37,2013-05-28 18:47:00,
2013-05-28 14:52:00,59.1,53.9,30.18,SE,126,4.0,4.0,83,0.00,CLR,,0.00,WeatherDisplay:10.37,2013-05-28 18:52:00,
2013-05-28 14:57:00,59.1,54.3,30.18,ESE,119,3.5,3.5,84,0.00,CLR,,0.00,WeatherDisplay:10.37,2013-05-28 18:57:00,
2013-05-28 15:02:00,59.9,54.7,30.18,ESE,121,3.0,3.0,83,0.00,CLR,,0.00,WeatherDisplay:10.37,2013-05-28 19:02:00,
2013-05-28 15:07:00,59.8,54.6,30.18,SE,125,0.0,0.0,83,0.00,-RA,,0.00,WeatherDisplay:10.37,2013-05-28 19:07:00,
2013-05-28 15:12:00,59.9,54.4,30.18,SE,127,3.5,3.5,82,0.00,-RA,,0.00,WeatherDisplay:10.37,2013-05-28 19:12:00,
2013-05-28 15:17:00,59.5,54.3,30.18,SE,128,3.5,3.5,83,0.00,-RA,,0.00,WeatherDisplay:10.37,2013-05-28 19:17:00,
2013-05-28 15:22:00,59.3,54.1,30.18,SE,130,2.3,2.3,83,0.00,-RA,,0.00,WeatherDisplay:10.37,2013-05-28 19:22:00,
2013-05-28 15:27:00,59.1,53.9,30.18,SE,129,0.0,0.0,83,0.00,-RA,,0.00,WeatherDisplay:10.37,2013-05-28 19:27:00,
2013-05-28 15:32:00,59.7,54.5,30.18,SE,130,0.0,0.0,83,0.00,-RA,,0.00,WeatherDisplay:10.37,2013-05-28 19:32:00,
2013-05-28 15:37:00,60.8,55.3,30.18,SSW,205,3.0,3.0,82,0.00,-RA,,0.00,WeatherDisplay:10.37,2013-05-28 19:37:00,
2013-05-28 15:42:00,61.1,54.5,30.18,SW,234,10.4,10.4,79,0.00,-RA,,0.00,WeatherDisplay:10.37,2013-05-28 19:42:00,
2013-05-28 15:47:00,61.0,53.7,30.18,WSW,250,4.6,4.6,77,0.00,-RA,,0.00,WeatherDisplay:10.37,2013-05-28 19:47:00,
2013-05-28 15:52:00,60.7,53.4,30.18,SW,236,8.1,8.1,77,0.00,-RA,,0.00,WeatherDisplay:10.37,2013-05-28 19:52:00,
2013-05-28 15:57:00,60.5,52.5,30.18,WSW,244,10.4,10.4,75,0.00,-RA,,0.00,WeatherDisplay:10.37,2013-05-28 19:57:00,
2013-05-28 16:02:00,60.5,53.3,30.18,WSW,254,10.4,10.4,77,0.00,-RA,,0.00,WeatherDisplay:10.37,2013-05-28 20:02:00,
2013-05-28 16:07:00,60.4,53.5,30.18,West,267,6.9,6.9,78,0.00,-RA,,0.00,WeatherDisplay:10.37,2013-05-28 20:07:00,
2013-05-28 16:12:00,60.5,53.6,30.19,WSW,253,9.2,9.2,78,0.00,-RA,,0.00,WeatherDisplay:10.37,2013-05-28 20:12:00,
2013-05-28 16:17:00,60.4,53.9,30.18,West,274,5.8,5.8,79,0.00,-RA,,0.00,WeatherDisplay:10.37,2013-05-28 20:17:00,
2013-05-28 16:22:00,60.4,53.9,30.18,West,273,8.1,8.1,79,0.00,-RA,,0.00,WeatherDisplay:10.37,2013-05-28 20:22:00,
2013-05-28 16:27:00,60.3,54.1,30.18,WSW,253,4.6,4.6,80,0.00,-RA,,0.00,WeatherDisplay:10.37,2013-05-28 20:27:00,
2013-05-28 16:32:00,60.2,54.3,30.18,WSW,248,7.0,7.0,81,0.00,-RA,,0.00,WeatherDisplay:10.37,2013-05-28 20:32:00,
2013-05-28 16:37:00,59.5,54.0,30.18,SW,231,10.4,10.4,82,0.00,-RA,,0.00,WeatherDisplay:10.37,2013-05-28 20:37:00,
2013-05-28 16:42:00,58.8,54.3,30.18,SW,220,9.2,9.2,85,0.00,-RA,,0.00,WeatherDisplay:10.37,2013-05-28 20:42:00,
2013-05-28 16:47:00,58.4,54.2,30.18,WSW,238,6.9,6.9,86,0.00,-RA,,0.00,WeatherDisplay:10.37,2013-05-28 20:47:00,
2013-05-28 16:52:00,58.5,54.3,30.18,West,261,9.2,9.2,86,0.00,-RA,,0.00,WeatherDisplay:10.37,2013-05-28 20:52:00,
2013-05-28 16:57:00,58.4,53.9,30.18,WSW,257,9.2,9.2,85,0.00,-RA,,0.00,WeatherDisplay:10.37,2013-05-28 20:57:00,
2013-05-28 17:02:00,58.4,53.9,30.18,West,270,9.2,9.2,85,0.00,-RA,,0.00,WeatherDisplay:10.37,2013-05-28 21:02:00,
2013-05-28 17:07:00,58.1,53.6,30.18,West,266,5.8,5.8,85,0.00,-RA,,0.00,WeatherDisplay:10.37,2013-05-28 21:07:00,
2013-05-28 17:12:00,58.1,53.6,30.18,West,266,4.0,4.0,85,0.00,-RA,,0.00,WeatherDisplay:10.37,2013-05-28 21:12:00,
2013-05-28 17:17:00,58.1,53.6,30.19,West,266,4.0,4.0,85,0.00,-RA,,0.00,WeatherDisplay:10.37,2013-05-28 21:17:00,
2013-05-28 17:22:00,57.6,53.8,30.18,West,259,7.0,7.0,87,0.00,-RA,,0.00,WeatherDisplay:10.37,2013-05-28 21:22:00,
2013-05-28 17:27:00,57.3,53.8,30.19,WSW,252,9.0,9.0,88,0.00,-RA,,0.00,WeatherDisplay:10.37,2013-05-28 21:27:00,
2013-05-28 17:32:00,57.3,54.1,30.18,West,267,5.0,5.0,89,0.00,-RA,,0.00,WeatherDisplay:10.37,2013-05-28 21:32:00,
2013-05-28 17:37:00,57.2,54.0,30.18,West,276,5.8,5.8,89,0.00,-RA,,0.00,WeatherDisplay:10.37,2013-05-28 21:37:00,
2013-05-28 17:42:00,57.2,54.0,30.18,West,275,3.5,3.5,89,0.00,-RA,,0.00,WeatherDisplay:10.37,2013-05-28 21:42:00,
2013-05-28 17:47:00,57.2,54.0,30.18,WSW,239,5.0,5.0,89,0.00,-RA,,0.00,WeatherDisplay:10.37,2013-05-28 21:47:00,
2013-05-28 17:52:00,57.1,54.2,30.18,WSW,243,5.0,5.0,90,0.00,-RA,,0.00,WeatherDisplay:10.37,2013-05-28 21:52:00,
2013-05-28 17:57:00,56.8,53.9,30.18,SW,232,3.5,3.5,90,0.00,-RA,,0.00,WeatherDisplay:10.37,2013-05-28 21:57:00,
2013-05-28 18:02:00,56.7,53.8,30.17,SW,232,3.5,3.5,90,0.00,-RA,,0.00,WeatherDisplay:10.37,2013-05-28 22:02:00,
2013-05-28 18:07:00,56.6,54.0,30.17,SW,232,3.5,0.0,91,0.00,-RA,,0.00,WeatherDisplay:10.37,2013-05-28 22:07:00,
2013-05-28 18:12:00,56.6,54.0,30.17,SW,232,1.1,0.0,91,0.00,-RA,,0.00,WeatherDisplay:10.37,2013-05-28 22:12:00,
2013-05-28 18:17:00,56.5,53.9,30.17,SW,232,3.5,3.5,91,0.00,-RA,,0.00,WeatherDisplay:10.37,2013-05-28 22:17:00,
2013-05-28 18:22:00,56.6,54.0,30.17,SW,232,2.3,2.3,91,0.00,-RA,,0.00,WeatherDisplay:10.37,2013-05-28 22:22:00,
2013-05-28 18:27:00,56.5,53.9,30.17,SW,232,0.0,0.0,91,0.01,-RA,,0.01,WeatherDisplay:10.37,2013-05-28 22:27:00,
2013-05-28 18:32:00,56.4,53.8,30.17,SW,225,1.0,0.0,91,0.01,-RA,,0.01,WeatherDisplay:10.37,2013-05-28 22:32:00,
2013-05-28 18:37:00,56.4,53.8,30.17,SW,225,0.0,0.0,91,0.01,-RA,,0.01,WeatherDisplay:10.37,2013-05-28 22:37:00,
2013-05-28 18:42:00,56.6,54.0,30.16,SW,225,0.0,0.0,91,0.01,-RA,,0.01,WeatherDisplay:10.37,2013-05-28 22:42:00,
2013-05-28 18:47:00,56.6,54.0,30.16,SW,225,0.0,0.0,91,0.01,-RA,,0.01,WeatherDisplay:10.37,2013-05-28 22:47:00,
2013-05-28 18:52:00,56.6,54.0,30.16,SW,225,0.0,0.0,91,0.01,-RA,,0.01,WeatherDisplay:10.37,2013-05-28 22:52:00,
2013-05-28 18:57:00,56.6,54.0,30.16,North,10,0.0,0.0,91,0.01,-RA,,0.01,WeatherDisplay:10.37,2013-05-28 22:57:00,
2013-05-28 19:02:00,56.6,54.0,30.16,North,0,0.0,0.0,91,0.01,-RA,,0.01,WeatherDisplay:10.37,2013-05-28 23:02:00,
2013-05-28 19:07:00,56.6,54.0,30.16,North,0,0.0,0.0,91,0.01,-RA,,0.01,WeatherDisplay:10.37,2013-05-28 23:07:00,
2013-05-28 19:12:00,56.6,54.0,30.16,North,0,0.0,0.0,91,0.01,-RA,,0.01,WeatherDisplay:10.37,2013-05-28 23:12:00,
2013-05-28 19:17:00,56.4,54.1,30.16,ENE,78,0.0,0.0,92,0.01,-RA,,0.01,WeatherDisplay:10.37,2013-05-28 23:17:00,
2013-05-28 19:22:00,56.3,54.0,30.16,SE,126,0.0,0.0,92,0.01,-RA,,0.01,WeatherDisplay:10.37,2013-05-28 23:22:00,
2013-05-28 19:27:00,56.1,53.8,30.16,SE,126,0.0,0.0,92,0.01,-RA,,0.01,WeatherDisplay:10.37,2013-05-28 23:27:00,
2013-05-28 19:32:00,56.2,53.9,30.16,SE,126,0.0,0.0,92,0.00,-RA,,0.01,WeatherDisplay:10.37,2013-05-28 23:32:00,
2013-05-28 19:37:00,56.1,53.8,30.16,SE,126,0.0,0.0,92,0.00,-RA,,0.01,WeatherDisplay:10.37,2013-05-28 23:37:00,
2013-05-28 19:42:00,56.0,54.0,30.16,SE,126,0.0,0.0,93,0.00,-RA,,0.01,WeatherDisplay:10.37,2013-05-28 23:42:00,
2013-05-28 19:47:00,55.9,53.9,30.16,SE,126,0.0,0.0,93,0.00,-RA,,0.01,WeatherDisplay:10.37,2013-05-28 23:47:00,
2013-05-28 19:52:00,55.9,53.9,30.16,SE,126,0.0,0.0,93,0.00,-RA,,0.01,WeatherDisplay:10.37,2013-05-28 23:52:00,
2013-05-28 19:57:00,55.9,53.9,30.16,SE,126,0.0,0.0,93,0.00,-RA,,0.01,WeatherDisplay:10.37,2013-05-28 23:57:00,
2013-05-28 20:02:00,56.1,54.4,30.16,SE,127,1.1,1.1,94,0.00,OVC,,0.01,WeatherDisplay:10.37,2013-05-29 00:02:00,
2013-05-28 20:07:00,56.2,54.5,30.16,SE,127,0.0,0.0,94,0.00,OVC,,0.01,WeatherDisplay:10.37,2013-05-29 00:07:00,
2013-05-28 20:12:00,56.3,54.6,30.15,SE,127,0.0,0.0,94,0.00,OVC,,0.01,WeatherDisplay:10.37,2013-05-29 00:12:00,
2013-05-28 20:17:00,56.3,54.6,30.15,SE,128,3.0,3.0,94,0.00,OVC,,0.01,WeatherDisplay:10.37,2013-05-29 00:17:00,
2013-05-28 20:22:00,56.3,54.6,30.15,SE,134,3.5,3.5,94,0.00,OVC,,0.01,WeatherDisplay:10.37,2013-05-29 00:22:00,
2013-05-28 20:27:00,56.4,55.0,30.14,SE,134,3.5,3.5,95,0.00,OVC,,0.01,WeatherDisplay:10.37,2013-05-29 00:27:00,
2013-05-28 20:32:00,56.6,55.2,30.14,SSE,150,4.0,4.0,95,0.00,OVC,,0.01,WeatherDisplay:10.37,2013-05-29 00:32:00,
2013-05-28 20:37:00,56.8,55.4,30.14,SSE,155,0.0,0.0,95,0.00,OVC,,0.01,WeatherDisplay:10.37,2013-05-29 00:37:00,
2013-05-28 20:42:00,57.2,55.8,30.14,South,170,0.0,0.0,95,0.00,OVC,,0.01,WeatherDisplay:10.37,2013-05-29 00:42:00,
2013-05-28 20:47:00,57.2,55.8,30.15,South,169,0.0,0.0,95,0.00,OVC,,0.01,WeatherDisplay:10.37,2013-05-29 00:47:00,
2013-05-28 20:52:00,57.3,55.9,30.14,SSE,167,3.5,3.5,95,0.00,OVC,,0.01,WeatherDisplay:10.37,2013-05-29 00:52:00,
2013-05-28 20:57:00,57.4,56.0,30.14,South,175,4.6,4.6,95,0.00,OVC,,0.01,WeatherDisplay:10.37,2013-05-29 00:57:00,
2013-05-28 21:02:00,57.4,56.3,30.14,South,171,5.8,5.8,96,0.00,OVC,,0.01,WeatherDisplay:10.37,2013-05-29 01:02:00,
2013-05-28 21:07:00,57.4,56.3,30.15,SSW,213,5.8,5.8,96,0.00,OVC,,0.01,WeatherDisplay:10.37,2013-05-29 01:07:00,
2013-05-28 21:12:00,57.4,56.3,30.15,South,181,3.5,3.5,96,0.00,OVC,,0.01,WeatherDisplay:10.37,2013-05-29 01:12:00,
2013-05-28 21:17:00,57.4,56.3,30.15,South,189,5.0,5.0,96,0.00,OVC,,0.01,WeatherDisplay:10.37,2013-05-29 01:17:00,
2013-05-28 21:22:00,57.5,56.4,30.14,SSE,161,6.9,6.9,96,0.00,OVC,,0.01,WeatherDisplay:10.37,2013-05-29 01:22:00,
2013-05-28 21:27:00,57.5,56.4,30.14,South,181,5.8,5.8,96,0.00,OVC,,0.01,WeatherDisplay:10.37,2013-05-29 01:27:00,
2013-05-28 21:32:00,57.5,56.4,30.14,SSW,205,5.8,5.8,96,0.00,OVC,,0.01,WeatherDisplay:10.37,2013-05-29 01:32:00,
2013-05-28 21:37:00,57.5,56.4,30.14,SSE,167,8.1,8.1,96,0.00,OVC,,0.01,WeatherDisplay:10.37,2013-05-29 01:37:00,
2013-05-28 21:42:00,57.4,56.3,30.14,SSE,158,4.6,4.6,96,0.00,OVC,,0.01,WeatherDisplay:10.37,2013-05-29 01:42:00,
2013-05-28 21:47:00,57.4,56.3,30.14,SE,142,5.8,5.8,96,0.00,OVC,,0.01,WeatherDisplay:10.37,2013-05-29 01:47:00,
2013-05-28 21:52:00,57.3,56.2,30.14,SE,139,5.0,5.0,96,0.00,OVC,,0.01,WeatherDisplay:10.37,2013-05-29 01:52:00,
2013-05-28 21:57:00,57.3,56.2,30.14,SSE,150,8.1,8.1,96,0.00,OVC,,0.01,WeatherDisplay:10.37,2013-05-29 01:57:00,
2013-05-28 22:02:00,57.3,56.2,30.14,SE,134,3.5,3.5,96,0.00,OVC,,0.01,WeatherDisplay:10.37,2013-05-29 02:02:00,
2013-05-28 22:07:00,57.3,56.2,30.14,South,174,5.8,5.8,96,0.00,OVC,,0.01,WeatherDisplay:10.37,2013-05-29 02:07:00,
2013-05-28 22:12:00,57.3,56.2,30.14,South,171,5.8,5.8,96,0.00,OVC,,0.01,WeatherDisplay:10.37,2013-05-29 02:12:00,
2013-05-28 22:17:00,57.3,56.2,30.14,SSE,151,4.6,4.6,96,0.00,OVC,,0.01,WeatherDisplay:10.37,2013-05-29 02:17:00,
2013-05-28 22:22:00,57.2,56.1,30.14,SSE,156,5.8,5.8,96,0.00,OVC,,0.01,WeatherDisplay:10.37,2013-05-29 02:22:00,
2013-05-28 22:27:00,57.3,56.2,30.14,South,181,9.2,9.2,96,0.00,OVC,,0.01,WeatherDisplay:10.37,2013-05-29 02:27:00,
2013-05-28 22:32:00,57.4,56.3,30.14,South,184,3.5,3.5,96,0.00,OVC,,0.01,WeatherDisplay:10.37,2013-05-29 02:32:00,
2013-05-28 22:37:00,57.5,56.4,30.14,South,178,3.5,3.5,96,0.00,OVC,,0.01,WeatherDisplay:10.37,2013-05-29 02:37:00,
2013-05-28 22:42:00,57.6,56.2,30.14,South,179,5.8,5.8,95,0.00,OVC,,0.01,WeatherDisplay:10.37,2013-05-29 02:42:00,
2013-05-28 22:47:00,57.6,56.2,30.14,South,190,3.5,3.5,95,0.00,OVC,,0.01,WeatherDisplay:10.37,2013-05-29 02:47:00,
2013-05-28 22:52:00,57.6,56.2,30.14,SSW,205,0.0,0.0,95,0.00,OVC,,0.01,WeatherDisplay:10.37,2013-05-29 02:52:00,
2013-05-28 22:57:00,57.5,56.1,30.14,South,186,5.8,5.8,95,0.00,OVC,,0.01,WeatherDisplay:10.37,2013-05-29 02:57:00,
2013-05-28 23:02:00,57.5,56.1,30.13,SSW,211,5.8,5.8,95,0.00,OVC,,0.01,WeatherDisplay:10.37,2013-05-29 03:02:00,
2013-05-28 23:07:00,57.5,56.1,30.14,SW,216,4.6,4.6,95,0.00,OVC,,0.01,WeatherDisplay:10.37,2013-05-29 03:07:00,
2013-05-28 23:12:00,57.4,56.0,30.13,SSW,202,3.5,3.5,95,0.00,OVC,,0.01,WeatherDisplay:10.37,2013-05-29 03:12:00,
2013-05-28 23:17:00,57.4,56.0,30.13,SW,215,0.0,0.0,95,0.00,OVC,,0.01,WeatherDisplay:10.37,2013-05-29 03:17:00,
2013-05-28 23:22:00,57.4,56.0,30.13,SW,214,0.0,0.0,95,0.00,OVC,,0.01,WeatherDisplay:10.37,2013-05-29 03:22:00,
2013-05-28 23:27:00,57.3,55.9,30.13,SSW,213,0.0,0.0,95,0.00,OVC,,0.01,WeatherDisplay:10.37,2013-05-29 03:27:00,
2013-05-28 23:32:00,57.4,56.0,30.13,SSW,213,0.0,0.0,95,0.00,OVC,,0.01,WeatherDisplay:10.37,2013-05-29 03:32:00,
2013-05-28 23:37:00,57.5,56.1,30.13,SSW,213,0.0,0.0,95,0.00,OVC,,0.01,WeatherDisplay:10.37,2013-05-29 03:37:00,
2013-05-28 23:42:00,57.5,56.1,30.13,SSW,213,0.0,0.0,95,0.00,OVC,,0.01,WeatherDisplay:10.37,2013-05-29 03:42:00,
2013-05-28 23:47:00,57.5,56.1,30.13,SSW,213,0.0,0.0,95,0.00,OVC,,0.01,WeatherDisplay:10.37,2013-05-29 03:47:00,
2013-05-28 23:52:00,57.7,56.3,30.13,SW,214,0.0,0.0,95,0.01,RA,,0.02,WeatherDisplay:10.37,2013-05-29 03:52:00,
2013-05-28 23:57:00,57.7,56.0,30.14,SW,214,0.0,0.0,94,0.01,RA,,0.02,WeatherDisplay:10.37,2013-05-29 03:57:00,